createdAt,value
2018-05-10T00:02:24.469Z,68.20
2018-05-10T00:04:51.636Z,68.20
2018-05-10T00:07:19.573Z,68.10
2018-05-10T00:09:46.744Z,68.10
2018-05-10T00:12:13.915Z,68.20
2018-05-10T00:14:41.848Z,68.20
2018-05-10T00:17:09.008Z,68.20
2018-05-10T00:19:36.224Z,68.30
2018-05-10T00:22:03.399Z,68.20
2018-05-10T00:24:30.568Z,68.30
2018-05-10T00:26:57.749Z,68.30
2018-05-10T00:29:24.960Z,68.20
2018-05-10T00:31:52.123Z,68.30
2018-05-10T00:34:19.288Z,68.30
2018-05-10T00:36:47.223Z,68.30
2018-05-10T00:39:14.391Z,68.20
2018-05-10T00:41:41.597Z,68.30
2018-05-10T00:44:08.766Z,68.20
2018-05-10T00:46:35.932Z,68.30
2018-05-10T00:49:03.095Z,68.40
2018-05-10T00:51:30.313Z,68.20
2018-05-10T00:53:57.487Z,68.30
2018-05-10T00:56:24.656Z,68.40
2018-05-10T00:58:51.820Z,68.40
2018-05-10T01:01:19.772Z,68.40
2018-05-10T01:03:46.940Z,68.30
2018-05-10T01:06:14.099Z,68.50
2018-05-10T01:08:42.813Z,68.40
2018-05-10T01:11:10.902Z,68.20
2018-05-10T01:13:38.996Z,68.50
2018-05-10T01:16:06.184Z,68.20
2018-05-10T01:18:34.120Z,68.40
2018-05-10T01:21:01.332Z,68.30
2018-05-10T01:23:28.497Z,68.50
2018-05-10T01:25:55.705Z,68.30
2018-05-10T01:28:23.640Z,68.40
2018-05-10T01:30:50.860Z,68.30
2018-05-10T01:33:18.031Z,68.30
2018-05-10T01:35:51.128Z,68.20
2018-05-10T01:38:18.297Z,68.20
2018-05-10T01:40:45.463Z,68.30
2018-05-10T01:43:12.632Z,68.30
2018-05-10T01:45:40.564Z,68.40
2018-05-10T01:48:07.733Z,68.40
2018-05-10T01:50:34.900Z,68.40
2018-05-10T01:53:02.879Z,68.60
2018-05-10T01:55:30.813Z,68.50
2018-05-10T01:57:58.028Z,68.50
2018-05-10T02:00:25.189Z,68.50
2018-05-10T02:02:52.351Z,68.40
2018-05-10T02:05:19.564Z,68.60
2018-05-10T02:07:46.727Z,68.60
2018-05-10T02:10:13.898Z,68.50
2018-05-10T02:12:41.069Z,68.40
2018-05-10T02:15:08.236Z,68.60
2018-05-10T02:17:35.420Z,68.50
2018-05-10T02:20:02.580Z,68.40
2018-05-10T02:22:29.756Z,68.40
2018-05-10T02:24:56.974Z,68.30
2018-05-10T02:27:24.144Z,68.50
2018-05-10T02:29:51.388Z,68.50
2018-05-10T02:32:18.508Z,68.50
2018-05-10T02:34:45.684Z,68.40
2018-05-10T02:37:12.864Z,68.40
2018-05-10T02:39:40.054Z,68.50
2018-05-10T02:42:07.219Z,68.40
2018-05-10T02:44:35.160Z,68.70
2018-05-10T02:47:02.329Z,68.60
2018-05-10T02:49:29.500Z,68.60
2018-05-10T02:51:57.476Z,68.60
2018-05-10T02:54:25.410Z,68.50
2018-05-10T02:56:52.580Z,68.50
2018-05-10T02:59:20.520Z,68.40
2018-05-10T03:01:47.689Z,68.40
2018-05-10T03:04:14.856Z,68.50
2018-05-10T03:06:42.788Z,68.80
2018-05-10T03:09:09.957Z,68.80
2018-05-10T03:11:37.126Z,68.50
2018-05-10T03:14:05.071Z,68.60
2018-05-10T03:16:32.248Z,68.60
2018-05-10T03:19:00.217Z,68.70
2018-05-10T03:21:28.149Z,68.80
2018-05-10T03:23:56.074Z,68.80
2018-05-10T03:26:24.006Z,68.80
2018-05-10T03:28:51.180Z,68.80
2018-05-10T03:31:19.112Z,68.90
2018-05-10T03:33:46.280Z,68.80
2018-05-10T03:36:13.448Z,69.10
2018-05-10T03:38:41.384Z,69.10
2018-05-10T03:41:08.552Z,69.10
2018-05-10T03:43:35.727Z,69.10
2018-05-10T03:46:03.675Z,69.20
2018-05-10T03:48:30.845Z,69.20
2018-05-10T03:50:58.782Z,69.00
2018-05-10T03:53:25.952Z,68.90
2018-05-10T03:55:53.120Z,69.00
2018-05-10T03:58:21.100Z,69.20
2018-05-10T04:00:49.032Z,69.20
2018-05-10T04:03:33.063Z,69.20
2018-05-10T04:06:06.133Z,69.20
2018-05-10T04:08:39.281Z,69.20
2018-05-10T04:11:27.006Z,69.20
2018-05-10T04:13:54.168Z,69.20
2018-05-10T04:16:22.103Z,69.20
2018-05-10T04:18:51.076Z,69.20
2018-05-10T04:21:18.239Z,69.20
2018-05-10T04:23:45.403Z,69.40
2018-05-10T04:26:12.567Z,69.30
2018-05-10T04:28:39.731Z,69.10
2018-05-10T04:31:06.904Z,69.30
2018-05-10T04:33:34.840Z,69.30
2018-05-10T04:36:02.010Z,69.20
2018-05-10T04:38:29.956Z,69.10
2018-05-10T04:40:57.121Z,68.90
2018-05-10T04:43:24.344Z,69.20
2018-05-10T04:45:51.512Z,69.00
2018-05-10T04:48:18.723Z,69.20
2018-05-10T04:50:45.906Z,69.20
2018-05-10T04:53:13.076Z,69.30
2018-05-10T04:55:40.241Z,69.00
2018-05-10T04:58:08.220Z,69.10
2018-05-10T05:00:36.152Z,69.20
2018-05-10T05:03:03.322Z,69.20
2018-05-10T05:05:30.487Z,69.00
2018-05-10T05:07:58.417Z,69.10
2018-05-10T05:10:26.397Z,69.10
2018-05-10T05:12:53.564Z,69.10
2018-05-10T05:15:20.732Z,69.00
2018-05-10T05:17:48.665Z,69.20
2018-05-10T05:20:15.868Z,69.10
2018-05-10T05:22:43.033Z,68.80
2018-05-10T05:25:10.239Z,68.90
2018-05-10T05:27:37.413Z,68.90
2018-05-10T05:30:05.387Z,69.10
2018-05-10T05:32:33.325Z,68.80
2018-05-10T05:35:00.492Z,68.80
2018-05-10T05:37:28.427Z,68.80
2018-05-10T05:39:55.588Z,68.80
2018-05-10T05:42:22.772Z,68.80
2018-05-10T05:44:50.715Z,69.10
2018-05-10T05:47:17.976Z,68.90
2018-05-10T05:49:45.140Z,69.00
2018-05-10T05:52:13.087Z,68.90
2018-05-10T05:54:41.554Z,68.80
2018-05-10T05:57:08.756Z,69.00
2018-05-10T05:59:36.734Z,68.80
2018-05-10T06:02:04.724Z,68.80
2018-05-10T06:04:31.936Z,68.80
2018-05-10T06:06:59.104Z,68.90
2018-05-10T06:09:27.040Z,68.70
2018-05-10T06:11:54.200Z,68.70
2018-05-10T06:14:21.412Z,69.00
2018-05-10T06:16:48.669Z,68.80
2018-05-10T06:19:16.608Z,68.90
2018-05-10T06:21:44.540Z,68.80
2018-05-10T06:24:11.759Z,68.80
2018-05-10T06:26:38.928Z,68.80
2018-05-10T06:29:06.106Z,68.90
2018-05-10T06:31:33.272Z,69.10
2018-05-10T06:34:01.441Z,68.80
2018-05-10T06:36:28.637Z,68.70
2018-05-10T06:38:55.805Z,69.00
2018-05-10T06:41:23.096Z,68.90
2018-05-10T06:43:50.297Z,68.90
2018-05-10T06:46:17.484Z,68.80
2018-05-10T06:48:44.752Z,68.80
2018-05-10T06:51:11.973Z,68.80
2018-05-10T06:53:39.141Z,68.70
2018-05-10T06:56:06.309Z,69.00
2018-05-10T06:58:33.480Z,68.70
2018-05-10T07:01:01.460Z,68.90
2018-05-10T07:03:28.669Z,68.70
2018-05-10T07:05:55.840Z,69.30
2018-05-10T07:08:23.944Z,70.30
2018-05-10T07:10:51.152Z,70.20
2018-05-10T07:13:18.360Z,70.30
2018-05-10T07:15:45.529Z,70.00
2018-05-10T07:18:12.737Z,69.70
2018-05-10T07:20:40.739Z,69.50
2018-05-10T07:23:07.916Z,69.50
2018-05-10T07:25:35.130Z,69.30
2018-05-10T07:28:02.304Z,69.10
2018-05-10T07:30:30.302Z,69.00
2018-05-10T07:32:57.561Z,69.10
2018-05-10T07:35:24.716Z,68.90
2018-05-10T07:37:51.928Z,69.00
2018-05-10T07:40:19.121Z,69.10
2018-05-10T07:42:46.288Z,69.20
2018-05-10T07:45:14.220Z,69.20
2018-05-10T07:47:42.179Z,69.10
2018-05-10T07:50:10.112Z,69.70
2018-05-10T07:52:37.271Z,69.10
2018-05-10T07:55:04.442Z,68.90
2018-05-10T07:57:31.612Z,69.40
2018-05-10T07:59:58.784Z,69.40
2018-05-10T08:02:25.970Z,69.20
2018-05-10T08:04:53.150Z,69.40
2018-05-10T08:07:20.324Z,69.30
2018-05-10T08:09:47.492Z,69.40
2018-05-10T08:12:14.792Z,69.40
2018-05-10T08:14:41.963Z,69.40
2018-05-10T08:17:09.139Z,69.40
2018-05-10T08:19:36.308Z,69.40
2018-05-10T08:22:04.244Z,69.50
2018-05-10T08:24:31.420Z,69.50
2018-05-10T08:26:58.592Z,69.50
2018-05-10T08:29:30.400Z,69.40
2018-05-10T08:31:57.589Z,69.40
2018-05-10T08:34:24.802Z,69.50
2018-05-10T08:36:52.037Z,70.30
2018-05-10T08:39:19.265Z,69.80
2018-05-10T08:41:47.197Z,69.80
2018-05-10T08:44:14.364Z,69.80
2018-05-10T08:46:41.621Z,69.80
2018-05-10T08:49:08.836Z,69.80
2018-05-10T08:51:36.021Z,70.40
2018-05-10T08:54:03.344Z,70.10
2018-05-10T08:56:30.597Z,69.90
2018-05-10T08:58:57.808Z,70.00
2018-05-10T09:01:25.743Z,70.00
2018-05-10T09:03:52.975Z,70.00
2018-05-10T09:06:20.185Z,69.70
2018-05-10T09:08:48.227Z,69.80
2018-05-10T09:11:15.456Z,69.80
2018-05-10T09:13:42.737Z,69.80
2018-05-10T09:16:09.955Z,69.80
2018-05-10T09:18:37.207Z,69.60
2018-05-10T09:21:04.464Z,69.60
2018-05-10T09:23:31.672Z,69.80
2018-05-10T09:25:59.652Z,69.60
2018-05-10T09:28:27.655Z,69.50
2018-05-10T09:30:54.829Z,69.50
2018-05-10T09:33:22.006Z,69.80
2018-05-10T09:35:49.940Z,69.50
2018-05-10T09:38:17.156Z,69.40
2018-05-10T09:40:44.364Z,69.50
2018-05-10T09:43:11.533Z,69.60
2018-05-10T09:45:39.504Z,69.70
2018-05-10T09:48:07.435Z,69.50
2018-05-10T09:50:34.640Z,69.50
2018-05-10T09:53:01.809Z,69.60
2018-05-10T09:55:28.979Z,69.40
2018-05-10T09:57:56.148Z,69.60
2018-05-10T10:00:29.164Z,69.60
2018-05-10T10:02:57.133Z,69.60
2018-05-10T10:05:24.301Z,69.60
2018-05-10T10:07:51.594Z,69.70
2018-05-10T10:10:18.760Z,69.60
2018-05-10T10:12:45.994Z,69.70
2018-05-10T10:15:13.158Z,69.50
2018-05-10T10:17:40.392Z,69.70
2018-05-10T10:20:08.292Z,69.70
2018-05-10T10:22:35.525Z,69.60
2018-05-10T10:25:02.735Z,69.60
2018-05-10T10:27:30.756Z,69.70
2018-05-10T10:29:58.720Z,69.60
2018-05-10T10:32:26.926Z,69.50
2018-05-10T10:34:54.149Z,69.70
2018-05-10T10:37:21.321Z,69.60
2018-05-10T10:39:48.554Z,69.80
2018-05-10T10:42:15.725Z,69.50
2018-05-10T10:44:42.953Z,69.50
2018-05-10T10:47:10.205Z,69.50
2018-05-10T10:49:37.430Z,69.60
2018-05-10T10:52:05.377Z,69.70
2018-05-10T10:54:33.312Z,70.20
2018-05-10T10:57:00.555Z,69.60
2018-05-10T10:59:27.803Z,69.50
2018-05-10T11:01:55.081Z,69.70
2018-05-10T11:04:22.315Z,69.50
2018-05-10T11:06:49.572Z,69.50
2018-05-10T11:09:17.036Z,69.30
2018-05-10T11:11:44.124Z,69.40
2018-05-10T11:14:12.148Z,69.30
2018-05-10T11:16:39.401Z,69.20
2018-05-10T11:19:06.654Z,69.60
2018-05-10T11:21:33.907Z,69.20
2018-05-10T11:24:01.084Z,69.30
2018-05-10T11:26:28.345Z,69.30
2018-05-10T11:28:55.553Z,69.20
2018-05-10T11:31:22.721Z,69.20
2018-05-10T11:33:49.971Z,69.20
2018-05-10T11:36:17.155Z,69.30
2018-05-10T11:38:45.108Z,69.40
2018-05-10T11:41:12.278Z,69.20
2018-05-10T11:43:39.594Z,69.20
2018-05-10T11:46:06.828Z,69.10
2018-05-10T11:48:34.107Z,69.20
2018-05-10T11:51:01.280Z,69.30
2018-05-10T11:53:28.452Z,69.40
2018-05-10T11:55:56.388Z,69.30
2018-05-10T11:58:24.855Z,69.30
2018-05-10T12:00:52.113Z,69.20
2018-05-10T12:03:19.275Z,69.40
2018-05-10T12:05:46.488Z,69.30
2018-05-10T12:08:13.704Z,69.40
2018-05-10T12:10:40.869Z,69.30
2018-05-10T12:13:08.803Z,69.40
2018-05-10T12:15:36.040Z,69.30
2018-05-10T12:18:03.298Z,69.20
2018-05-10T12:20:30.510Z,69.40
2018-05-10T12:22:58.453Z,69.00
2018-05-10T12:25:25.674Z,69.00
2018-05-10T12:27:52.849Z,69.10
2018-05-10T12:30:20.095Z,69.20
2018-05-10T12:32:47.333Z,69.20
2018-05-10T12:35:14.505Z,69.20
2018-05-10T12:37:41.680Z,69.20
2018-05-10T12:40:09.702Z,69.20
2018-05-10T12:42:36.869Z,69.20
2018-05-10T12:45:04.041Z,68.90
2018-05-10T12:47:31.263Z,69.00
2018-05-10T12:49:58.468Z,68.90
2018-05-10T12:52:26.484Z,69.00
2018-05-10T12:54:53.696Z,68.90
2018-05-10T12:57:21.708Z,69.00
2018-05-10T12:59:48.965Z,69.00
2018-05-10T13:02:16.217Z,68.90
2018-05-10T13:04:43.380Z,68.90
2018-05-10T13:07:10.620Z,69.00
2018-05-10T13:09:37.793Z,69.00
2018-05-10T13:12:04.963Z,68.90
2018-05-10T13:14:32.193Z,68.90
2018-05-10T13:16:59.435Z,69.00
2018-05-10T13:19:26.682Z,69.00
2018-05-10T13:21:54.038Z,69.00
2018-05-10T13:24:21.236Z,69.00
2018-05-10T13:26:49.257Z,69.00
2018-05-10T13:29:16.516Z,69.00
2018-05-10T13:31:43.770Z,68.80
2018-05-10T13:34:11.057Z,68.90
2018-05-10T13:36:38.264Z,68.90
2018-05-10T13:39:05.437Z,68.80
2018-05-10T13:41:33.033Z,68.90
2018-05-10T13:44:01.697Z,69.00
2018-05-10T13:46:28.925Z,69.00
2018-05-10T13:48:56.098Z,68.80
2018-05-10T13:51:24.868Z,69.10
2018-05-10T13:53:52.042Z,69.20
2018-05-10T13:56:19.216Z,68.90
2018-05-10T13:58:47.157Z,68.90
2018-05-10T14:01:14.329Z,68.80
2018-05-10T14:03:41.492Z,68.90
2018-05-10T14:06:09.428Z,68.80
2018-05-10T14:08:36.644Z,68.70
2018-05-10T14:11:03.949Z,68.80
2018-05-10T14:13:31.096Z,68.90
2018-05-10T14:15:58.324Z,68.90
2018-05-10T14:18:25.537Z,68.90
2018-05-10T14:20:53.482Z,68.90
2018-05-10T14:23:20.701Z,69.00
2018-05-10T14:25:47.898Z,68.90
2018-05-10T14:28:15.885Z,68.90
2018-05-10T14:30:43.052Z,68.90
2018-05-10T14:33:10.224Z,68.80
2018-05-10T14:35:37.392Z,68.80
2018-05-10T14:38:04.596Z,69.00
2018-05-10T14:40:31.780Z,69.00
2018-05-10T14:42:59.334Z,68.80
2018-05-10T14:45:26.508Z,68.90
2018-05-10T14:47:54.566Z,69.00
2018-05-10T14:50:21.816Z,68.90
2018-05-10T14:52:48.990Z,68.90
2018-05-10T14:55:16.222Z,69.00
2018-05-10T14:57:43.404Z,69.00
2018-05-10T15:00:10.573Z,68.80
2018-05-10T15:02:38.593Z,69.00
2018-05-10T15:05:05.808Z,68.90
2018-05-10T15:07:33.821Z,69.00
2018-05-10T15:10:01.076Z,69.00
2018-05-10T15:12:28.328Z,68.80
2018-05-10T15:15:08.570Z,69.00
2018-05-10T15:17:36.350Z,68.90
2018-05-10T15:20:03.517Z,69.00
2018-05-10T15:22:30.789Z,69.10
2018-05-10T15:24:57.957Z,69.10
2018-05-10T15:27:25.967Z,69.00
2018-05-10T15:29:53.148Z,69.00
2018-05-10T15:32:20.384Z,69.00
2018-05-10T15:34:47.553Z,69.00
2018-05-10T15:37:18.066Z,69.00
2018-05-10T15:39:45.264Z,69.00
2018-05-10T15:42:13.200Z,69.20
2018-05-10T15:44:40.373Z,69.10
2018-05-10T15:47:07.550Z,69.20
2018-05-10T15:49:35.493Z,69.10
2018-05-10T15:52:02.713Z,69.10
2018-05-10T15:54:29.969Z,69.10
2018-05-10T15:56:57.153Z,69.20
2018-05-10T15:59:25.562Z,69.20
2018-05-10T16:01:53.399Z,69.30
2018-05-10T16:04:20.693Z,69.30
2018-05-10T16:06:47.870Z,69.30
2018-05-10T16:09:15.041Z,69.30
2018-05-10T16:11:42.209Z,69.20
2018-05-10T16:14:09.428Z,69.20
2018-05-10T16:16:36.689Z,69.20
2018-05-10T16:19:03.861Z,69.30
2018-05-10T16:21:31.081Z,69.20
2018-05-10T16:23:58.253Z,68.90
2018-05-10T16:26:25.471Z,68.50
2018-05-10T16:28:52.672Z,68.20
2018-05-10T16:31:19.836Z,68.00
2018-05-10T16:33:47.777Z,67.30
2018-05-10T16:36:14.948Z,67.30
2018-05-10T16:38:42.111Z,67.30
2018-05-10T16:41:10.049Z,67.10
2018-05-10T16:43:37.220Z,67.10
2018-05-10T16:46:04.438Z,67.20
2018-05-10T16:48:31.649Z,67.20
2018-05-10T16:50:59.585Z,67.00
2018-05-10T16:53:26.868Z,67.00
2018-05-10T16:55:54.061Z,67.00
2018-05-10T16:58:21.271Z,67.10
2018-05-10T17:00:49.736Z,67.30
2018-05-10T17:03:17.054Z,67.30
2018-05-10T17:05:44.347Z,68.00
2018-05-10T17:08:11.611Z,67.30
2018-05-10T17:10:39.637Z,67.60
2018-05-10T17:13:06.893Z,67.60
2018-05-10T17:15:34.140Z,67.70
2018-05-10T17:18:01.390Z,67.80
2018-05-10T17:20:28.649Z,67.90
2018-05-10T17:22:55.821Z,68.00
2018-05-10T17:25:26.091Z,67.90
2018-05-10T17:27:53.264Z,68.00
2018-05-10T17:30:20.437Z,67.90
2018-05-10T17:32:47.782Z,67.90
2018-05-10T17:35:14.953Z,67.90
2018-05-10T17:37:42.124Z,68.10
2018-05-10T17:40:09.304Z,68.40
2018-05-10T17:42:36.529Z,68.50
2018-05-10T17:45:03.701Z,69.10
2018-05-10T17:47:32.225Z,69.00
2018-05-10T17:49:59.394Z,69.00
2018-05-10T17:52:26.560Z,69.00
2018-05-10T17:54:53.882Z,69.20
2018-05-10T17:57:21.136Z,69.80
2018-05-10T17:59:48.344Z,70.20
2018-05-10T18:02:16.974Z,70.10
2018-05-10T18:04:44.144Z,70.10
2018-05-10T18:07:11.400Z,70.80
2018-05-10T18:09:38.525Z,71.60
2018-05-10T18:12:05.888Z,71.70
2018-05-10T18:14:33.141Z,71.30
2018-05-10T18:17:00.433Z,70.50
2018-05-10T18:19:27.652Z,70.40
2018-05-10T18:21:54.833Z,70.40
2018-05-10T18:24:22.904Z,71.00
2018-05-10T18:26:50.120Z,70.90
2018-05-10T18:29:17.332Z,71.30
2018-05-10T18:31:52.492Z,71.30
2018-05-10T18:34:19.706Z,71.30
2018-05-10T18:36:47.266Z,71.00
2018-05-10T18:39:15.173Z,71.50
2018-05-10T18:41:42.385Z,71.70
2018-05-10T18:44:09.706Z,71.60
2018-05-10T18:46:36.881Z,72.10
2018-05-10T18:49:04.093Z,71.70
2018-05-10T18:51:31.313Z,71.50
2018-05-10T18:53:59.317Z,71.10
2018-05-10T18:56:26.523Z,71.10
2018-05-10T18:58:53.693Z,71.20
2018-05-10T19:01:21.628Z,71.50
2018-05-10T19:03:48.806Z,71.50
2018-05-10T19:06:16.744Z,70.90
2018-05-10T19:08:43.978Z,70.80
2018-05-10T19:11:11.231Z,71.00
2018-05-10T19:13:38.521Z,70.90
2018-05-10T19:16:05.740Z,71.50
2018-05-10T19:18:32.992Z,71.30
2018-05-10T19:21:00.286Z,70.80
2018-05-10T19:23:27.503Z,71.70
2018-05-10T19:25:54.753Z,71.60
2018-05-10T19:28:21.925Z,71.10
2018-05-10T19:30:49.099Z,71.70
2018-05-10T19:33:17.129Z,71.90
2018-05-10T19:35:44.378Z,71.90
2018-05-10T19:38:11.600Z,72.20
2018-05-10T19:40:38.773Z,72.10
2018-05-10T19:43:05.944Z,72.10
2018-05-10T19:45:33.126Z,71.70
2018-05-10T19:48:00.336Z,70.80
2018-05-10T19:50:27.508Z,71.20
2018-05-10T19:52:54.745Z,70.80
2018-05-10T19:55:21.933Z,71.60
2018-05-10T19:57:49.153Z,70.90
2018-05-10T20:00:16.327Z,71.60
2018-05-10T20:02:43.540Z,70.80
2018-05-10T20:05:10.753Z,71.10
2018-05-10T20:07:38.705Z,70.80
2018-05-10T20:10:05.881Z,70.70
2018-05-10T20:12:33.818Z,70.60
2018-05-10T20:15:00.996Z,70.70
2018-05-10T20:17:29.020Z,70.90
2018-05-10T20:19:56.274Z,70.80
2018-05-10T20:22:23.532Z,70.70
2018-05-10T20:24:50.781Z,70.40
2018-05-10T20:27:17.956Z,70.70
2018-05-10T20:29:45.130Z,70.20
2018-05-10T20:32:13.238Z,70.20
2018-05-10T20:34:40.365Z,70.20
2018-05-10T20:37:08.378Z,70.60
2018-05-10T20:39:35.590Z,70.50
2018-05-10T20:42:03.608Z,70.70
2018-05-10T20:44:30.959Z,70.70
2018-05-10T20:46:58.128Z,70.60
2018-05-10T20:49:25.349Z,70.60
2018-05-10T20:51:52.658Z,70.50
2018-05-10T20:54:20.644Z,71.00
2018-05-10T20:56:48.629Z,71.20
2018-05-10T20:59:15.911Z,71.30
2018-05-10T21:01:43.120Z,71.40
2018-05-10T21:04:11.143Z,72.20
2018-05-10T21:06:38.376Z,72.10
2018-05-10T21:09:05.581Z,71.70
2018-05-10T21:11:32.753Z,71.30
2018-05-10T21:14:00.762Z,71.50
2018-05-10T21:16:27.954Z,71.30
2018-05-10T21:18:55.988Z,71.90
2018-05-10T21:21:23.156Z,71.80
2018-05-10T21:23:50.356Z,71.30
2018-05-10T21:26:17.544Z,71.40
2018-05-10T21:28:45.370Z,71.70
2018-05-10T21:31:13.319Z,71.30
2018-05-10T21:33:41.350Z,71.10
2018-05-10T21:36:08.606Z,71.10
2018-05-10T21:38:35.820Z,71.50
2018-05-10T21:41:03.757Z,71.20
2018-05-10T21:43:30.969Z,71.20
2018-05-10T21:45:58.172Z,71.00
2018-05-10T21:48:25.383Z,71.40
2018-05-10T21:50:52.640Z,70.70
2018-05-10T21:53:19.851Z,70.80
2018-05-10T21:55:48.580Z,71.10
2018-05-10T21:58:15.749Z,71.10
2018-05-10T22:00:42.964Z,71.00
2018-05-10T22:03:10.237Z,70.70
2018-05-10T22:05:37.771Z,70.60
2018-05-10T22:08:05.319Z,70.40
2018-05-10T22:10:33.244Z,70.60
2018-05-10T22:13:00.412Z,70.60
2018-05-10T22:15:27.734Z,70.30
2018-05-10T22:17:54.980Z,70.30
2018-05-10T22:20:22.151Z,70.30
2018-05-10T22:22:50.031Z,70.60
2018-05-10T22:25:17.263Z,70.50
2018-05-10T22:27:44.506Z,70.30
2018-05-10T22:30:11.705Z,70.40
2018-05-10T22:32:38.910Z,70.50
2018-05-10T22:35:06.260Z,70.30
2018-05-10T22:37:33.376Z,70.50
2018-05-10T22:40:01.495Z,70.60
2018-05-10T22:42:28.756Z,70.50
2018-05-10T22:44:55.923Z,70.60
2018-05-10T22:47:23.093Z,70.60
2018-05-10T22:49:50.304Z,70.30
2018-05-10T22:52:17.557Z,70.70
2018-05-10T22:54:44.805Z,70.30
2018-05-10T22:57:12.024Z,70.50
2018-05-10T22:59:40.088Z,70.80
2018-05-10T23:02:07.232Z,70.70
2018-05-10T23:04:35.360Z,70.80
2018-05-10T23:07:02.532Z,70.80
2018-05-10T23:09:29.701Z,70.60
2018-05-10T23:11:58.379Z,70.60
2018-05-10T23:14:25.741Z,70.60
2018-05-10T23:16:53.013Z,70.70
2018-05-10T23:19:20.984Z,70.50
2018-05-10T23:21:49.000Z,70.70
2018-05-10T23:24:16.168Z,70.70
2018-05-10T23:26:43.336Z,70.60
2018-05-10T23:29:10.564Z,70.70
2018-05-10T23:31:45.208Z,70.80
2018-05-10T23:34:14.461Z,70.80
2018-05-10T23:36:44.926Z,70.80
2018-05-10T23:39:16.181Z,70.80
2018-05-10T23:41:45.671Z,71.10
2018-05-10T23:44:12.920Z,70.70
2018-05-10T23:46:40.173Z,70.80
2018-05-10T23:49:07.356Z,70.70
2018-05-10T23:51:35.397Z,70.50
2018-05-10T23:54:05.327Z,70.50
2018-05-10T23:56:32.602Z,70.70
2018-05-10T23:58:59.924Z,70.80
